Time;durP1;ratioP1;P1;durP2;ratioP2;P2;SDS_P1;SDS_P2;PMS_P1;PMS_P2;Temp;Humidity;BMP_temperature;BMP_pressure;BME280_temperature;BME280_humidity;BME280_pressure;Samples;Min_cycle;Max_cycle;Signal;HPM_P1;HPM_P2
2021/08/10 00:00:07;;;;;;;6.87;2.63;;;14.80;99.90;;;;;;5026647;28;20218;-77
2021/08/10 00:02:35;;;;;;;4.27;2.90;;;14.90;99.90;;;;;;5027732;28;20204;-77
2021/08/10 00:05:04;;;;;;;9.63;4.47;;;15.00;99.90;;;;;;5025247;28;20222;-77
2021/08/10 00:07:31;;;;;;;9.27;4.43;;;15.10;99.90;;;;;;5026548;28;20219;-77
2021/08/10 00:09:58;;;;;;;6.93;3.57;;;15.30;99.90;;;;;;5026269;28;20208;-77
2021/08/10 00:12:25;;;;;;;4.68;2.45;;;15.30;99.90;;;;;;5026029;28;20203;-77
2021/08/10 00:14:52;;;;;;;3.20;2.63;;;15.20;99.90;;;;;;5028367;28;20210;-77
2021/08/10 00:17:19;;;;;;;3.30;1.97;;;14.80;99.90;;;;;;5031335;28;20576;-77
2021/08/10 00:19:47;;;;;;;9.03;3.77;;;14.90;99.90;;;;;;5029033;28;20206;-77
2021/08/10 00:22:15;;;;;;;6.50;3.38;;;14.80;99.90;;;;;;5028832;28;20206;-77
2021/08/10 00:24:42;;;;;;;4.50;3.27;;;14.90;99.90;;;;;;5028064;28;20210;-77
2021/08/10 00:27:08;;;;;;;6.23;3.80;;;14.80;99.90;;;;;;5051834;23;20224;-74
2021/08/10 00:29:36;;;;;;;4.32;2.63;;;14.80;99.90;;;;;;5007998;28;20224;-74
2021/08/10 00:32:03;;;;;;;5.10;2.53;;;14.50;99.90;;;;;;5009438;28;20204;-73
2021/08/10 00:34:31;;;;;;;3.28;2.17;;;14.10;99.90;;;;;;5010800;28;20200;-73
2021/08/10 00:36:57;;;;;;;4.17;2.50;;;14.00;99.90;;;;;;5004279;28;20646;-74
2021/08/10 00:39:26;;;;;;;3.73;2.43;;;14.00;99.90;;;;;;5009566;28;20208;-74
2021/08/10 00:41:53;;;;;;;2.17;1.97;;;14.00;99.90;;;;;;5012446;28;20208;-74
2021/08/10 00:44:19;;;;;;;3.00;2.40;;;14.00;99.90;;;;;;5004197;28;20204;-74
2021/08/10 00:46:46;;;;;;;3.63;2.73;;;14.10;99.90;;;;;;5009156;28;20222;-73
2021/08/10 00:49:13;;;;;;;3.67;2.50;;;14.10;99.90;;;;;;5009561;28;20208;-73
2021/08/10 00:51:40;;;;;;;4.57;2.60;;;14.10;99.90;;;;;;5009141;28;20572;-74
2021/08/10 00:54:08;;;;;;;3.50;2.50;;;14.10;99.90;;;;;;5011725;28;20219;-74
2021/08/10 00:56:36;;;;;;;4.00;2.73;;;14.20;99.90;;;;;;5009880;28;20662;-74
2021/08/10 00:59:04;;;;;;;3.77;2.40;;;14.20;99.90;;;;;;5010554;28;20212;-74
2021/08/10 01:01:31;;;;;;;5.63;2.80;;;14.20;99.90;;;;;;5009751;28;20571;-74
2021/08/10 01:03:57;;;;;;;2.90;2.30;;;14.20;99.90;;;;;;5009814;28;20607;-74
2021/08/10 01:06:28;;;;;;;3.40;2.63;;;14.00;99.90;;;;;;5012110;28;20916;-74
2021/08/10 01:09:02;;;;;;;4.13;2.57;;;14.10;99.90;;;;;;5010929;28;20304;-75
2021/08/10 01:11:33;;;;;;;5.00;2.47;;;14.10;99.90;;;;;;5011259;28;20203;-74
2021/08/10 01:14:10;;;;;;;3.40;2.30;;;14.00;99.90;;;;;;5005880;28;20200;-74
2021/08/10 01:16:41;;;;;;;2.90;2.23;;;14.00;99.90;;;;;;5013308;28;20676;-74
2021/08/10 01:19:32;;;;;;;4.23;2.30;;;13.90;99.90;;;;;;5010783;28;20200;-73
2021/08/10 01:22:01;;;;;;;3.03;2.33;;;13.80;99.90;;;;;;5007661;28;20200;-73
2021/08/10 01:24:33;;;;;;;3.90;2.57;;;13.80;99.90;;;;;;5010405;28;20642;-74
2021/08/10 01:27:16;;;;;;;3.13;2.07;;;13.90;99.90;;;;;;5010915;28;20708;-75
2021/08/10 01:29:53;;;;;;;5.17;2.70;;;13.90;99.90;;;;;;5011023;28;20211;-75
2021/08/10 01:32:21;;;;;;;4.87;2.60;;;13.90;99.90;;;;;;5011661;28;20210;-74
2021/08/10 01:34:49;;;;;;;4.40;2.67;;;13.90;99.90;;;;;;5009666;28;20526;-74
2021/08/10 01:37:20;;;;;;;5.87;2.57;;;13.80;99.90;;;;;;5007518;28;20217;-73
2021/08/10 01:39:52;;;;;;;4.47;2.50;;;13.80;99.90;;;;;;5013916;28;20205;-74
2021/08/10 01:42:19;;;;;;;4.70;3.10;;;13.70;99.90;;;;;;5007941;28;20551;-73
2021/08/10 01:44:48;;;;;;;3.87;2.80;;;13.70;99.90;;;;;;5009158;28;20208;-74
2021/08/10 01:47:15;;;;;;;5.03;3.10;;;13.70;99.90;;;;;;5012502;28;20227;-74
2021/08/10 01:49:45;;;;;;;3.47;2.40;;;13.70;99.90;;;;;;5009920;28;20563;-73
2021/08/10 01:52:16;;;;;;;5.23;2.90;;;13.60;99.90;;;;;;5010473;28;20211;-74
2021/08/10 01:54:44;;;;;;;3.27;2.40;;;13.40;99.90;;;;;;5009532;28;20209;-74
2021/08/10 01:57:11;;;;;;;3.10;2.50;;;13.40;99.90;;;;;;5011781;28;20663;-74
2021/08/10 01:59:39;;;;;;;3.63;2.70;;;13.40;99.90;;;;;;5012740;28;20287;-74
2021/08/10 02:02:07;;;;;;;3.93;2.80;;;13.50;99.90;;;;;;5008566;28;20205;-74
2021/08/10 02:04:35;;;;;;;3.13;2.77;;;13.40;99.90;;;;;;5001881;28;20215;-74
2021/08/10 02:07:04;;;;;;;4.50;2.80;;;13.40;99.90;;;;;;5012416;28;20251;-73
2021/08/10 02:09:33;;;;;;;5.40;2.80;;;13.50;99.90;;;;;;5006780;28;20208;-75
2021/08/10 02:12:02;;;;;;;4.53;3.23;;;13.60;99.90;;;;;;5016238;28;20208;-74
2021/08/10 02:14:30;;;;;;;5.10;2.30;;;13.70;99.90;;;;;;5003323;28;20200;-74
2021/08/10 02:17:02;;;;;;;3.77;2.37;;;13.50;99.90;;;;;;5006856;28;20255;-74
2021/08/10 02:19:34;;;;;;;4.07;2.37;;;13.10;99.90;;;;;;5011844;28;20246;-74
2021/08/10 02:22:06;;;;;;;3.87;2.40;;;13.10;99.90;;;;;;5007871;28;20662;-74
2021/08/10 02:24:37;;;;;;;4.13;2.50;;;13.20;99.90;;;;;;5008750;28;20684;-74
2021/08/10 02:27:08;;;;;;;3.23;2.33;;;13.20;99.90;;;;;;5008302;28;20220;-74
2021/08/10 02:29:38;;;;;;;2.67;1.90;;;13.30;99.90;;;;;;5005983;28;20212;-74
2021/08/10 02:32:08;;;;;;;3.13;2.47;;;13.40;99.90;;;;;;5012862;28;20208;-74
2021/08/10 02:34:36;;;;;;;4.30;2.40;;;13.50;99.90;;;;;;5000358;28;20207;-74
2021/08/10 02:37:07;;;;;;;4.33;2.80;;;13.60;99.90;;;;;;5004027;28;20201;-74
2021/08/10 02:39:37;;;;;;;3.53;2.50;;;13.70;99.90;;;;;;5015829;28;20287;-74
2021/08/10 02:42:05;;;;;;;4.83;2.53;;;13.80;99.90;;;;;;5015178;28;20208;-74
2021/08/10 02:44:35;;;;;;;4.10;2.33;;;13.80;99.90;;;;;;5004130;28;20677;-74
2021/08/10 02:47:01;;;;;;;3.40;2.27;;;13.80;99.90;;;;;;5011640;28;20227;-74
2021/08/10 02:49:28;;;;;;;4.23;2.40;;;13.90;99.90;;;;;;5006226;28;20207;-74
2021/08/10 02:51:55;;;;;;;4.20;2.60;;;14.00;99.90;;;;;;5011095;28;20200;-75
2021/08/10 02:54:23;;;;;;;4.67;2.40;;;14.10;99.90;;;;;;5009455;28;20204;-74
2021/08/10 02:56:56;;;;;;;3.63;2.73;;;14.20;99.90;;;;;;5009740;28;20210;-74
2021/08/10 02:59:27;;;;;;;2.73;2.20;;;14.10;99.90;;;;;;5012051;28;20206;-74
2021/08/10 03:02:03;;;;;;;4.40;2.47;;;14.20;99.90;;;;;;5009288;28;20211;-74
2021/08/10 03:04:31;;;;;;;3.07;2.20;;;14.20;99.90;;;;;;5010663;28;20202;-75
2021/08/10 03:06:59;;;;;;;3.60;2.60;;;14.30;99.90;;;;;;5009824;28;20204;-74
2021/08/10 03:09:29;;;;;;;3.90;2.20;;;14.40;99.90;;;;;;5009902;28;20218;-74
2021/08/10 03:12:00;;;;;;;4.57;2.97;;;14.40;99.90;;;;;;5000857;28;20208;-74
2021/08/10 03:14:29;;;;;;;3.47;2.57;;;14.40;99.90;;;;;;5008443;28;20601;-74
2021/08/10 03:16:58;;;;;;;4.30;2.63;;;14.40;99.90;;;;;;4999097;28;20214;-75
2021/08/10 03:19:28;;;;;;;3.13;2.57;;;14.50;99.90;;;;;;5009987;28;20218;-75
2021/08/10 03:21:56;;;;;;;5.47;2.77;;;14.50;99.90;;;;;;5015318;28;20684;-73
2021/08/10 03:24:26;;;;;;;3.93;2.60;;;14.60;99.90;;;;;;5009946;28;20560;-73
2021/08/10 03:26:58;;;;;;;4.17;2.37;;;14.60;99.90;;;;;;5008911;28;20251;-73
2021/08/10 03:29:25;;;;;;;3.60;2.73;;;14.70;99.90;;;;;;5010232;28;20200;-73
2021/08/10 03:31:52;;;;;;;6.53;2.90;;;14.70;99.90;;;;;;5009448;28;20200;-73
2021/08/10 03:34:20;;;;;;;3.63;2.23;;;14.70;99.90;;;;;;5007832;28;21367;-73
2021/08/10 03:36:48;;;;;;;6.00;2.90;;;14.80;99.90;;;;;;5009440;28;20207;-73
2021/08/10 03:39:16;;;;;;;8.00;4.60;;;14.80;99.90;;;;;;5009466;28;20283;-73
2021/08/10 03:41:44;;;;;;;7.93;4.60;;;14.90;99.90;;;;;;5009229;28;20211;-73
2021/08/10 03:44:14;;;;;;;16.40;9.73;;;14.90;99.90;;;;;;5001078;28;20209;-73
2021/08/10 03:46:41;;;;;;;6.90;4.13;;;14.90;99.90;;;;;;5006241;28;20200;-73
2021/08/10 03:49:08;;;;;;;7.83;4.20;;;14.80;99.90;;;;;;5011659;28;20226;-74
2021/08/10 03:51:37;;;;;;;6.87;3.30;;;14.80;99.90;;;;;;5014640;28;20574;-73
2021/08/10 03:54:05;;;;;;;3.60;2.60;;;14.80;99.90;;;;;;5013141;28;20215;-74
2021/08/10 03:56:33;;;;;;;3.70;2.30;;;14.90;99.90;;;;;;5012203;28;20204;-73
2021/08/10 03:59:02;;;;;;;2.30;1.77;;;14.90;99.90;;;;;;5009963;28;20602;-73
2021/08/10 04:01:32;;;;;;;3.27;2.07;;;14.90;99.90;;;;;;5008450;28;20208;-74
2021/08/10 04:04:00;;;;;;;3.63;2.00;;;15.00;99.90;;;;;;5014173;28;20208;-74
2021/08/10 04:06:28;;;;;;;3.13;2.05;;;15.00;99.90;;;;;;5007448;28;20573;-74
2021/08/10 04:08:55;;;;;;;3.47;2.00;;;15.00;99.90;;;;;;5008985;28;20220;-74
2021/08/10 04:11:23;;;;;;;2.60;2.40;;;15.00;99.90;;;;;;5014220;28;20204;-75
2021/08/10 04:13:50;;;;;;;3.17;2.13;;;14.90;99.90;;;;;;5011727;28;20200;-75
2021/08/10 04:16:19;;;;;;;3.63;2.23;;;15.00;99.90;;;;;;5010336;28;20282;-74
2021/08/10 04:18:49;;;;;;;4.50;2.20;;;15.00;99.90;;;;;;5014834;28;20643;-74
2021/08/10 04:21:20;;;;;;;3.90;1.80;;;15.00;99.90;;;;;;5014035;28;20658;-75
2021/08/10 04:23:47;;;;;;;3.78;2.15;;;15.00;99.90;;;;;;5005186;28;20208;-74
2021/08/10 04:26:13;;;;;;;4.50;2.03;;;14.90;99.90;;;;;;5010287;28;20227;-74
2021/08/10 04:28:40;;;;;;;3.53;1.90;;;14.90;99.90;;;;;;5013774;28;20230;-74
2021/08/10 04:31:07;;;;;;;2.70;2.07;;;15.00;99.90;;;;;;5013422;28;20204;-74
2021/08/10 04:33:34;;;;;;;3.70;2.10;;;15.00;99.90;;;;;;5009849;28;20200;-74
2021/08/10 04:36:02;;;;;;;5.97;2.27;;;15.10;99.90;;;;;;5026451;28;20204;-74
2021/08/10 04:38:29;;;;;;;9.20;6.23;;;15.20;99.90;;;;;;5013496;28;20208;-74
2021/08/10 04:40:56;;;;;;;16.50;8.70;;;15.30;99.90;;;;;;5012579;28;20299;-74
2021/08/10 04:43:23;;;;;;;8.97;5.60;;;15.30;99.90;;;;;;5011780;28;20210;-74
2021/08/10 04:45:50;;;;;;;6.17;2.33;;;15.30;99.90;;;;;;5009418;28;20208;-74
2021/08/10 04:48:16;;;;;;;2.57;1.90;;;15.50;99.90;;;;;;5011022;28;20220;-74
2021/08/10 04:50:43;;;;;;;1.93;1.77;;;15.60;99.90;;;;;;5014058;28;20231;-74
2021/08/10 04:53:11;;;;;;;3.07;2.07;;;15.70;99.90;;;;;;5013456;28;20224;-74
2021/08/10 04:55:38;;;;;;;3.33;1.83;;;15.90;99.90;;;;;;5012986;28;20197;-74
2021/08/10 04:58:05;;;;;;;2.10;1.67;;;15.90;99.90;;;;;;5012986;28;20196;-74
2021/08/10 05:00:32;;;;;;;4.80;1.93;;;16.00;99.90;;;;;;5010585;28;20626;-74
2021/08/10 05:02:59;;;;;;;3.30;1.70;;;16.10;99.90;;;;;;5015578;28;20291;-74
2021/08/10 05:05:26;;;;;;;2.63;1.83;;;16.20;99.90;;;;;;5012546;28;20201;-74
2021/08/10 05:07:52;;;;;;;2.92;2.13;;;16.30;99.90;;;;;;5013417;28;20670;-74
2021/08/10 05:10:21;;;;;;;5.05;2.30;;;16.30;99.90;;;;;;5010456;28;20205;-74
2021/08/10 05:12:48;;;;;;;2.90;1.77;;;16.40;99.90;;;;;;5012427;28;20205;-74
2021/08/10 05:15:14;;;;;;;3.42;2.03;;;16.40;99.90;;;;;;5011690;28;20214;-74
2021/08/10 05:17:41;;;;;;;4.50;2.50;;;16.40;99.90;;;;;;5001611;28;20209;-75
2021/08/10 05:20:09;;;;;;;5.38;1.73;;;16.40;99.90;;;;;;5012705;28;20204;-74
2021/08/10 05:22:37;;;;;;;2.80;1.98;;;16.40;99.90;;;;;;5011482;28;20204;-74
2021/08/10 05:25:05;;;;;;;4.68;2.33;;;16.40;99.90;;;;;;5012417;28;20211;-74
2021/08/10 05:27:34;;;;;;;4.47;1.90;;;16.30;99.90;;;;;;5013183;28;20654;-74
2021/08/10 05:30:01;;;;;;;4.63;2.20;;;16.30;99.90;;;;;;5013095;28;20212;-74
2021/08/10 05:32:27;;;;;;;4.20;1.73;;;16.30;99.90;;;;;;5006882;28;20209;-74
2021/08/10 05:34:54;;;;;;;2.43;1.70;;;16.30;99.90;;;;;;5003921;28;20204;-74
2021/08/10 05:37:21;;;;;;;2.40;1.92;;;16.30;99.90;;;;;;5016590;28;20203;-74
2021/08/10 05:39:48;;;;;;;3.33;1.98;;;16.30;99.90;;;;;;5012006;28;20296;-74
2021/08/10 05:42:15;;;;;;;4.47;2.00;;;16.40;99.90;;;;;;5010030;28;20758;-74
2021/08/10 05:44:43;;;;;;;4.88;2.05;;;16.40;99.90;;;;;;5003104;28;20213;-74
2021/08/10 05:47:10;;;;;;;3.42;2.30;;;16.40;99.90;;;;;;5011970;28;20211;-74
2021/08/10 05:49:37;;;;;;;3.40;2.15;;;16.40;99.90;;;;;;5009427;28;20582;-74
2021/08/10 05:52:05;;;;;;;3.00;1.80;;;16.40;99.90;;;;;;5014377;28;20203;-74
2021/08/10 05:54:32;;;;;;;4.13;2.22;;;16.40;99.90;;;;;;5012330;28;20207;-74
2021/08/10 05:56:59;;;;;;;2.80;2.00;;;16.40;99.90;;;;;;5012275;28;20200;-74
2021/08/10 05:59:25;;;;;;;2.53;1.90;;;16.40;99.90;;;;;;5008594;28;20193;-74
2021/08/10 06:01:54;;;;;;;3.50;2.10;;;16.40;99.90;;;;;;5015224;28;20204;-74
2021/08/10 06:04:20;;;;;;;4.03;2.47;;;16.40;99.90;;;;;;5009617;28;20214;-74
2021/08/10 06:06:47;;;;;;;6.10;2.13;;;16.40;99.90;;;;;;5011837;28;20211;-74
2021/08/10 06:09:14;;;;;;;5.22;2.03;;;16.40;99.90;;;;;;5010687;28;20693;-74
2021/08/10 06:11:41;;;;;;;2.72;1.90;;;16.40;99.90;;;;;;5010693;28;20290;-74
2021/08/10 06:14:08;;;;;;;3.28;2.00;;;16.50;99.90;;;;;;5010945;28;20204;-74
2021/08/10 06:16:35;;;;;;;4.10;2.13;;;16.60;99.90;;;;;;5011739;28;20559;-74
2021/08/10 06:19:03;;;;;;;6.22;2.13;;;16.50;99.90;;;;;;4999546;28;20633;-74
2021/08/10 06:21:30;;;;;;;2.45;2.10;;;16.60;99.90;;;;;;5011415;28;20548;-74
2021/08/10 06:23:58;;;;;;;5.68;1.90;;;16.50;99.90;;;;;;5011586;28;20547;-74
2021/08/10 06:26:24;;;;;;;4.40;2.10;;;16.50;99.90;;;;;;5011311;28;20757;-74
2021/08/10 06:28:51;;;;;;;3.00;2.10;;;16.50;99.90;;;;;;5011340;28;20610;-74
2021/08/10 06:31:19;;;;;;;5.47;1.80;;;16.50;99.90;;;;;;5009855;28;20208;-74
2021/08/10 06:33:45;;;;;;;5.10;2.20;;;16.50;99.90;;;;;;5011995;28;20204;-74
2021/08/10 06:36:14;;;;;;;2.65;1.70;;;16.50;99.90;;;;;;5011239;28;20204;-74
2021/08/10 06:38:41;;;;;;;4.57;2.35;;;16.50;99.90;;;;;;5012772;28;20295;-74
2021/08/10 06:41:07;;;;;;;3.20;2.72;;;16.50;99.90;;;;;;5011836;28;20205;-74
2021/08/10 06:43:34;;;;;;;4.40;2.13;;;16.50;99.90;;;;;;5005620;28;20347;-72
2021/08/10 06:46:01;;;;;;;5.75;2.10;;;16.40;99.90;;;;;;5003441;28;20216;-72
2021/08/10 06:48:28;;;;;;;3.03;1.90;;;16.40;99.90;;;;;;5006963;28;20232;-71
2021/08/10 06:50:55;;;;;;;2.72;2.00;;;16.40;99.90;;;;;;5011219;28;20210;-72
2021/08/10 06:53:23;;;;;;;4.28;2.25;;;16.30;99.90;;;;;;5010991;28;20200;-71
2021/08/10 06:55:51;;;;;;;3.13;2.10;;;16.40;99.90;;;;;;5011058;28;20584;-72
2021/08/10 06:58:18;;;;;;;2.83;1.95;;;16.40;99.90;;;;;;5010748;28;20209;-72
2021/08/10 07:00:45;;;;;;;5.57;2.30;;;16.30;99.90;;;;;;5011358;28;20207;-71
2021/08/10 07:03:11;;;;;;;5.03;2.08;;;16.30;99.90;;;;;;5009161;28;20574;-72
2021/08/10 07:05:38;;;;;;;3.10;2.25;;;16.20;99.90;;;;;;5008081;28;20213;-71
2021/08/10 07:08:05;;;;;;;2.53;2.30;;;16.20;99.90;;;;;;5011098;28;20211;-71
2021/08/10 07:10:34;;;;;;;2.58;2.17;;;16.20;99.90;;;;;;5010242;28;20211;-71
2021/08/10 07:13:00;;;;;;;4.63;2.75;;;16.20;99.90;;;;;;5009460;28;20218;-71
2021/08/10 07:15:27;;;;;;;2.92;2.20;;;16.20;99.90;;;;;;5010734;28;20207;-71
2021/08/10 07:17:54;;;;;;;4.90;2.38;;;16.20;99.90;;;;;;5002029;28;20200;-71
2021/08/10 07:20:21;;;;;;;2.78;2.40;;;16.20;99.90;;;;;;4996807;28;20231;-71
2021/08/10 07:22:48;;;;;;;3.75;2.20;;;16.30;99.90;;;;;;5010879;28;20689;-71
2021/08/10 07:25:15;;;;;;;3.97;2.33;;;16.40;99.90;;;;;;5009408;28;20682;-71
2021/08/10 07:27:43;;;;;;;6.47;2.50;;;16.40;99.90;;;;;;5011185;28;20212;-71
2021/08/10 07:30:11;;;;;;;5.22;2.47;;;16.30;99.90;;;;;;4997346;28;20231;-71
2021/08/10 07:32:38;;;;;;;3.33;2.72;;;16.40;99.90;;;;;;5007945;28;20207;-71
2021/08/10 07:35:05;;;;;;;4.55;2.28;;;16.70;99.90;;;;;;5011560;28;20204;-71
2021/08/10 07:37:33;;;;;;;5.45;2.60;;;16.80;99.90;;;;;;5011730;28;20213;-71
2021/08/10 07:40:00;;;;;;;5.47;2.45;;;17.00;99.90;;;;;;5010135;28;20196;-71
2021/08/10 07:42:26;;;;;;;3.72;2.58;;;17.10;99.90;;;;;;5010633;28;20334;-71
2021/08/10 07:44:55;;;;;;;4.60;2.70;;;17.20;99.90;;;;;;5009932;28;20211;-71
2021/08/10 07:47:21;;;;;;;3.33;2.50;;;17.30;99.90;;;;;;5010844;28;20296;-71
2021/08/10 07:49:48;;;;;;;4.53;2.45;;;17.40;99.90;;;;;;5011148;28;20220;-71
2021/08/10 07:52:15;;;;;;;3.00;2.60;;;17.60;99.90;;;;;;5010398;28;20200;-72
2021/08/10 07:54:42;;;;;;;5.85;2.20;;;17.60;99.90;;;;;;5000705;28;20224;-71
2021/08/10 07:57:09;;;;;;;4.18;2.65;;;17.70;99.90;;;;;;5002106;28;20624;-71
2021/08/10 07:59:36;;;;;;;2.97;2.30;;;17.90;99.90;;;;;;5009878;28;20247;-71
2021/08/10 08:02:04;;;;;;;6.15;2.70;;;18.00;99.90;;;;;;5010688;28;20302;-71
2021/08/10 08:04:34;;;;;;;4.10;2.65;;;18.20;99.90;;;;;;5013072;28;20204;-71
2021/08/10 08:07:01;;;;;;;3.35;2.40;;;18.30;99.90;;;;;;5007231;28;20204;-71
2021/08/10 08:09:28;;;;;;;3.95;2.30;;;18.40;99.90;;;;;;5011067;28;20460;-71
2021/08/10 08:11:55;;;;;;;3.22;2.28;;;18.50;99.90;;;;;;5009770;28;20680;-71
2021/08/10 08:14:23;;;;;;;3.58;2.70;;;18.50;99.90;;;;;;5003213;28;20205;-71
2021/08/10 08:16:50;;;;;;;3.17;2.25;;;18.50;99.90;;;;;;5004473;28;20205;-71
2021/08/10 08:19:18;;;;;;;3.15;2.03;;;18.60;99.90;;;;;;5005730;28;20200;-71
2021/08/10 08:21:45;;;;;;;2.22;2.00;;;18.60;99.90;;;;;;5009191;28;20215;-71
2021/08/10 08:24:12;;;;;;;3.38;2.40;;;18.50;99.90;;;;;;5006603;28;20572;-71
2021/08/10 08:26:39;;;;;;;3.47;2.35;;;18.50;99.90;;;;;;5010435;28;20559;-71
2021/08/10 08:29:06;;;;;;;4.45;2.63;;;18.60;99.90;;;;;;5011375;28;20222;-71
2021/08/10 08:31:33;;;;;;;3.53;2.47;;;18.50;99.90;;;;;;5004255;28;20196;-71
2021/08/10 08:33:59;;;;;;;4.90;2.47;;;18.50;99.90;;;;;;5006310;28;20613;-71
2021/08/10 08:36:28;;;;;;;5.05;2.85;;;18.60;99.90;;;;;;5012870;28;20692;-71
2021/08/10 08:38:55;;;;;;;4.93;2.53;;;18.60;99.90;;;;;;5010388;28;20542;-71
2021/08/10 08:41:21;;;;;;;3.15;2.30;;;18.60;99.90;;;;;;5009878;28;20217;-71
2021/08/10 08:43:48;;;;;;;5.15;2.72;;;18.60;99.90;;;;;;5009139;28;20214;-71
2021/08/10 08:46:15;;;;;;;4.35;2.83;;;18.80;99.90;;;;;;5008241;28;20588;-72
2021/08/10 08:48:44;;;;;;;4.35;3.00;;;18.70;99.90;;;;;;5002078;28;20311;-71
2021/08/10 08:51:12;;;;;;;4.70;3.00;;;18.80;99.90;;;;;;5008757;28;20236;-71
2021/08/10 08:53:51;;;;;;;6.88;3.17;;;18.80;99.90;;;;;;5009245;28;20227;-71
2021/08/10 08:56:20;;;;;;;5.40;2.90;;;19.00;99.90;;;;;;5003776;28;20208;-71
2021/08/10 08:58:47;;;;;;;5.60;3.15;;;19.10;99.90;;;;;;5001666;28;20212;-71
2021/08/10 09:01:14;;;;;;;4.13;3.00;;;19.20;99.90;;;;;;5004049;28;20243;-72
2021/08/10 09:03:41;;;;;;;5.60;3.22;;;19.50;99.90;;;;;;5006993;28;20938;-71
2021/08/10 09:06:08;;;;;;;6.50;3.20;;;20.00;99.90;;;;;;5005922;28;20204;-71
2021/08/10 09:08:39;;;;;;;5.35;3.03;;;20.10;99.90;;;;;;5010944;28;20227;-71
2021/08/10 09:11:09;;;;;;;4.78;2.80;;;20.40;99.90;;;;;;5007036;28;20682;-71
2021/08/10 09:13:39;;;;;;;5.30;2.90;;;20.60;99.90;;;;;;5005675;28;20677;-71
2021/08/10 09:16:07;;;;;;;6.93;3.42;;;21.00;99.90;;;;;;5009151;28;20220;-71
2021/08/10 09:18:37;;;;;;;6.72;3.13;;;21.10;99.90;;;;;;5006753;28;20235;-71
2021/08/10 09:21:07;;;;;;;4.95;2.70;;;21.40;99.90;;;;;;5008045;28;20221;-72
2021/08/10 09:23:46;;;;;;;5.40;3.17;;;21.40;99.90;;;;;;5004692;28;20671;-71
2021/08/10 09:26:17;;;;;;;5.50;2.95;;;21.90;99.90;;;;;;5005617;28;20211;-71
2021/08/10 09:28:44;;;;;;;4.38;2.95;;;22.10;99.90;;;;;;5006156;28;20219;-71
2021/08/10 09:31:36;;;;;;;5.60;3.00;;;22.40;99.90;;;;;;5006961;28;20220;-71
2021/08/10 09:34:05;;;;;;;5.22;3.17;;;22.70;99.90;;;;;;4990278;28;20235;-71
2021/08/10 09:36:33;;;;;;;4.70;3.47;;;22.60;99.90;;;;;;5007003;28;20407;-72
2021/08/10 09:39:00;;;;;;;5.40;3.33;;;22.20;99.90;;;;;;5006692;28;20595;-72
2021/08/10 09:41:29;;;;;;;5.45;3.40;;;22.50;99.90;;;;;;4999722;28;20680;-71
2021/08/10 09:44:17;;;;;;;4.68;3.58;;;22.70;99.90;;;;;;5004248;28;20477;-71
2021/08/10 09:46:49;;;;;;;5.53;3.63;;;22.00;99.90;;;;;;4996893;28;20258;-71
2021/08/10 09:49:18;;;;;;;7.18;4.05;;;22.20;99.90;;;;;;5003358;28;20682;-71
2021/08/10 09:51:47;;;;;;;5.57;3.67;;;22.40;99.90;;;;;;5005499;28;20216;-71
2021/08/10 09:54:14;;;;;;;5.80;3.90;;;22.30;99.90;;;;;;5007780;28;20582;-72
2021/08/10 09:56:51;;;;;;;5.53;3.83;;;23.00;99.90;;;;;;5003834;28;20208;-71
2021/08/10 09:59:19;;;;;;;7.97;4.70;;;23.10;99.90;;;;;;4998356;28;20210;-71
2021/08/10 10:01:47;;;;;;;7.47;4.63;;;23.10;99.90;;;;;;4998968;28;20611;-71
2021/08/10 10:04:18;;;;;;;5.75;3.80;;;23.20;99.90;;;;;;4997392;28;20430;-71
2021/08/10 10:06:46;;;;;;;5.88;4.03;;;23.70;99.90;;;;;;5001545;28;20675;-71
2021/08/10 10:09:14;;;;;;;8.65;4.32;;;23.80;99.90;;;;;;5000465;28;20205;-71
2021/08/10 10:11:42;;;;;;;6.30;4.07;;;23.40;99.90;;;;;;5003462;28;20204;-72
2021/08/10 10:14:11;;;;;;;5.43;3.97;;;23.80;99.90;;;;;;4992071;28;20215;-72
2021/08/10 10:16:40;;;;;;;6.28;3.90;;;23.50;99.90;;;;;;5002492;28;20504;-71
2021/08/10 10:19:11;;;;;;;4.85;3.30;;;23.70;99.90;;;;;;5005311;28;20497;-71
2021/08/10 10:21:41;;;;;;;4.68;3.33;;;23.20;99.90;;;;;;5002920;28;20689;-71
2021/08/10 10:24:10;;;;;;;7.22;3.92;;;23.60;99.90;;;;;;5000941;28;20209;-72
2021/08/10 10:26:39;;;;;;;7.30;4.60;;;24.00;99.90;;;;;;4996412;28;20211;-72
2021/08/10 10:29:09;;;;;;;7.07;4.07;;;24.30;99.90;;;;;;4999750;28;20501;-72
2021/08/10 10:31:37;;;;;;;5.10;3.63;;;24.10;99.90;;;;;;4999958;28;20219;-71
2021/08/10 10:34:05;;;;;;;6.20;4.30;;;24.10;99.90;;;;;;5001599;28;20208;-72
2021/08/10 10:36:32;;;;;;;6.22;3.95;;;24.20;99.90;;;;;;5004621;28;20205;-72
2021/08/10 10:39:01;;;;;;;6.47;4.40;;;24.30;99.90;;;;;;5005509;28;20224;-72
2021/08/10 10:41:33;;;;;;;6.10;3.95;;;24.50;99.90;;;;;;5004466;28;20291;-72
2021/08/10 10:44:00;;;;;;;6.53;3.92;;;24.40;99.90;;;;;;5001286;28;20766;-72
2021/08/10 10:46:30;;;;;;;6.03;3.88;;;24.80;99.90;;;;;;5002199;28;20207;-71
2021/08/10 10:48:59;;;;;;;6.32;4.15;;;24.80;99.90;;;;;;5003037;28;20216;-72
2021/08/10 10:51:31;;;;;;;6.28;3.97;;;25.10;99.90;;;;;;5000565;28;20224;-72
2021/08/10 10:54:22;;;;;;;6.32;3.88;;;25.50;99.90;;;;;;5003278;28;20587;-72
2021/08/10 10:56:50;;;;;;;5.32;3.90;;;25.20;99.90;;;;;;5005933;28;20542;-72
2021/08/10 10:59:23;;;;;;;6.88;4.18;;;25.60;99.90;;;;;;5002384;28;20212;-72
2021/08/10 11:01:51;;;;;;;6.18;4.13;;;25.90;99.90;;;;;;4991303;28;20845;-72
2021/08/10 11:04:19;;;;;;;4.95;3.83;;;24.90;99.90;;;;;;5001900;28;20588;-72
2021/08/10 11:06:47;;;;;;;6.63;4.05;;;24.50;99.90;;;;;;4997541;28;20211;-72
2021/08/10 11:09:54;;;;;;;6.50;4.03;;;23.90;99.90;;;;;;5004159;28;20243;-72
2021/08/10 11:12:36;;;;;;;10.45;4.57;;;24.60;99.90;;;;;;4923818;29;20211;-72
2021/08/10 11:15:03;;;;;;;5.28;3.70;;;24.70;99.90;;;;;;4997963;28;20216;-72
2021/08/10 11:17:31;;;;;;;5.03;3.70;;;24.80;99.90;;;;;;4996657;28;20558;-72
2021/08/10 11:19:59;;;;;;;5.72;4.03;;;24.50;99.90;;;;;;4989112;28;20731;-72
2021/08/10 11:22:27;;;;;;;5.97;4.05;;;24.80;99.90;;;;;;5002416;28;20244;-72
2021/08/10 11:24:59;;;;;;;7.28;3.90;;;24.50;99.90;;;;;;5002464;28;20311;-71
2021/08/10 11:27:39;;;;;;;6.05;3.83;;;24.40;99.90;;;;;;4994594;28;20220;-72
2021/08/10 11:30:08;;;;;;;4.78;3.88;;;24.40;99.90;;;;;;5001996;28;20299;-72
2021/08/10 11:32:37;;;;;;;4.47;3.40;;;25.10;99.90;;;;;;5002843;28;20600;-72
2021/08/10 11:35:28;;;;;;;5.80;3.70;;;25.10;99.90;;;;;;5004468;28;20663;-72
2021/08/10 11:38:14;;;;;;;5.25;3.50;;;25.30;99.90;;;;;;5002526;28;20218;-73
2021/08/10 11:40:58;;;;;;;3.97;3.33;;;25.30;99.90;;;;;;4994372;28;20196;-72
2021/08/10 11:43:35;;;;;;;4.40;3.00;;;25.20;99.90;;;;;;5000691;28;20588;-72
2021/08/10 11:46:03;;;;;;;6.03;3.58;;;25.40;99.90;;;;;;5002171;28;20212;-72
2021/08/10 11:48:43;;;;;;;4.80;3.55;;;25.40;99.90;;;;;;5002819;28;20279;-72
2021/08/10 11:51:19;;;;;;;5.75;3.92;;;24.80;99.90;;;;;;5002216;28;20270;-72
2021/08/10 11:53:46;;;;;;;5.75;3.92;;;25.20;99.90;;;;;;5004821;28;20207;-72
2021/08/10 11:56:28;;;;;;;3.47;3.00;;;25.30;99.90;;;;;;5004220;28;20222;-72
2021/08/10 11:58:56;;;;;;;7.90;3.28;;;24.70;99.90;;;;;;5001606;28;20945;-72
2021/08/10 12:01:23;;;;;;;6.22;4.28;;;24.50;99.90;;;;;;5001884;28;20204;-72
2021/08/10 12:03:50;;;;;;;7.70;3.63;;;24.90;99.90;;;;;;4997424;28;20204;-72
2021/08/10 12:06:27;;;;;;;4.32;3.30;;;24.90;99.90;;;;;;5003075;28;20592;-72
2021/08/10 12:08:54;;;;;;;5.13;3.90;;;24.70;99.90;;;;;;4999300;28;20226;-72
2021/08/10 12:11:23;;;;;;;5.30;4.20;;;24.90;99.90;;;;;;5001451;28;20223;-72
2021/08/10 12:13:50;;;;;;;4.43;3.35;;;24.80;99.90;;;;;;5006509;28;20734;-72
2021/08/10 12:16:17;;;;;;;4.75;3.40;;;25.10;99.90;;;;;;5008243;28;20227;-72
2021/08/10 12:18:51;;;;;;;3.88;3.13;;;25.40;99.90;;;;;;5010336;28;20218;-72
2021/08/10 12:21:19;;;;;;;5.22;3.10;;;25.50;99.90;;;;;;5011260;28;20246;-72
2021/08/10 12:23:49;;;;;;;5.68;3.20;;;26.00;99.90;;;;;;5014910;28;20295;-72
2021/08/10 12:26:17;;;;;;;4.22;3.60;;;25.30;99.90;;;;;;5011166;28;20204;-72
2021/08/10 12:28:52;;;;;;;4.20;3.03;;;25.70;99.90;;;;;;5025484;22;20610;-81
2021/08/10 12:31:19;;;;;;;5.03;3.65;;;25.80;99.90;;;;;;5012275;28;20550;-78
2021/08/10 12:33:49;;;;;;;4.75;3.47;;;26.20;99.90;;;;;;5010487;28;20299;-78
2021/08/10 12:36:16;;;;;;;4.60;3.40;;;25.40;99.90;;;;;;5010090;28;20223;-80
2021/08/10 12:38:46;;;;;;;6.68;3.60;;;24.90;99.90;;;;;;5012154;28;20204;-82
2021/08/10 12:41:14;;;;;;;4.80;3.75;;;25.20;99.90;;;;;;5010200;28;20688;-78
2021/08/10 12:43:41;;;;;;;4.15;3.28;;;24.70;99.90;;;;;;5013433;28;20503;-81
2021/08/10 12:46:28;;;;;;;6.25;3.28;;;24.70;99.90;;;;;;5031567;28;20323;-80
2021/08/10 12:49:06;;;;;;;5.47;3.83;;;25.20;99.90;;;;;;5013656;28;20241;-80
2021/08/10 12:51:56;;;;;;;3.75;2.97;;;25.20;99.90;;;;;;5013459;28;20223;-79
2021/08/10 12:54:26;;;;;;;5.22;3.60;;;24.50;99.90;;;;;;5012065;28;20235;-81